sensor_id;sensor_type;location;lat;lon;timestamp;temperature;humidity
5492;DHT22;2768;53.540;10.224;2023-05-09T00:02:02;14.20;1.00
5492;DHT22;2768;53.540;10.224;2023-05-09T00:07:55;14.10;1.00
5492;DHT22;2768;53.540;10.224;2023-05-09T00:13:49;14.10;1.00
5492;DHT22;2768;53.540;10.224;2023-05-09T00:19:43;13.80;1.00
5492;DHT22;2768;53.540;10.224;2023-05-09T00:25:36;13.80;1.00
5492;DHT22;2768;53.540;10.224;2023-05-09T00:31:31;13.80;1.00
5492;DHT22;2768;53.540;10.224;2023-05-09T00:38:08;13.80;1.00
5492;DHT22;2768;53.540;10.224;2023-05-09T00:44:01;13.70;1.00
5492;DHT22;2768;53.540;10.224;2023-05-09T00:49:56;13.70;1.00
5492;DHT22;2768;53.540;10.224;2023-05-09T00:55:52;13.70;1.00
5492;DHT22;2768;53.540;10.224;2023-05-09T01:01:47;13.50;1.00
5492;DHT22;2768;53.540;10.224;2023-05-09T01:07:45;13.50;1.00
5492;DHT22;2768;53.540;10.224;2023-05-09T01:13:50;13.40;1.00
5492;DHT22;2768;53.540;10.224;2023-05-09T01:19:53;13.50;1.00
5492;DHT22;2768;53.540;10.224;2023-05-09T01:25:57;13.30;1.00
5492;DHT22;2768;53.540;10.224;2023-05-09T01:31:55;13.30;1.00
5492;DHT22;2768;53.540;10.224;2023-05-09T01:37:50;13.20;1.00
5492;DHT22;2768;53.540;10.224;2023-05-09T01:43:45;13.20;1.00
5492;DHT22;2768;53.540;10.224;2023-05-09T01:49:40;13.10;1.00
5492;DHT22;2768;53.540;10.224;2023-05-09T01:55:35;13.10;1.00
5492;DHT22;2768;53.540;10.224;2023-05-09T02:01:30;12.90;1.00
5492;DHT22;2768;53.540;10.224;2023-05-09T02:07:24;12.90;1.00
5492;DHT22;2768;53.540;10.224;2023-05-09T02:13:19;12.90;1.00
5492;DHT22;2768;53.540;10.224;2023-05-09T02:22:57;12.80;1.00
5492;DHT22;2768;53.540;10.224;2023-05-09T02:28:50;12.70;1.00
5492;DHT22;2768;53.540;10.224;2023-05-09T02:34:45;12.60;1.00
5492;DHT22;2768;53.540;10.224;2023-05-09T02:40:41;12.50;1.00
5492;DHT22;2768;53.540;10.224;2023-05-09T02:46:35;12.50;1.00
5492;DHT22;2768;53.540;10.224;2023-05-09T02:52:28;12.30;1.00
5492;DHT22;2768;53.540;10.224;2023-05-09T02:58:22;12.30;1.00
5492;DHT22;2768;53.540;10.224;2023-05-09T03:04:16;12.20;1.00
5492;DHT22;2768;53.540;10.224;2023-05-09T03:10:10;12.20;1.00
5492;DHT22;2768;53.540;10.224;2023-05-09T03:16:07;12.00;1.00
5492;DHT22;2768;53.540;10.224;2023-05-09T03:22:00;12.00;1.00
5492;DHT22;2768;53.540;10.224;2023-05-09T03:27:57;11.90;1.00
5492;DHT22;2768;53.540;10.224;2023-05-09T03:33:52;12.10;1.00
5492;DHT22;2768;53.540;10.224;2023-05-09T03:39:45;12.00;1.00
5492;DHT22;2768;53.540;10.224;2023-05-09T03:45:39;11.90;1.00
5492;DHT22;2768;53.540;10.224;2023-05-09T03:51:36;11.80;1.00
5492;DHT22;2768;53.540;10.224;2023-05-09T03:57:37;11.80;1.00
5492;DHT22;2768;53.540;10.224;2023-05-09T04:03:30;11.70;1.00
5492;DHT22;2768;53.540;10.224;2023-05-09T04:09:26;11.60;1.00
5492;DHT22;2768;53.540;10.224;2023-05-09T04:15:20;11.60;1.00
5492;DHT22;2768;53.540;10.224;2023-05-09T04:21:13;11.60;1.00
5492;DHT22;2768;53.540;10.224;2023-05-09T04:27:10;11.60;1.00
5492;DHT22;2768;53.540;10.224;2023-05-09T04:33:04;11.70;1.00
5492;DHT22;2768;53.540;10.224;2023-05-09T04:38:57;11.60;1.00
5492;DHT22;2768;53.540;10.224;2023-05-09T04:44:53;11.60;1.00
5492;DHT22;2768;53.540;10.224;2023-05-09T04:50:46;11.60;1.00
5492;DHT22;2768;53.540;10.224;2023-05-09T04:56:40;11.60;1.00
5492;DHT22;2768;53.540;10.224;2023-05-09T05:02:34;11.60;1.00
5492;DHT22;2768;53.540;10.224;2023-05-09T05:08:28;11.70;1.00
5492;DHT22;2768;53.540;10.224;2023-05-09T05:14:22;11.70;1.00
5492;DHT22;2768;53.540;10.224;2023-05-09T05:20:17;11.70;1.00
5492;DHT22;2768;53.540;10.224;2023-05-09T05:26:10;11.80;1.00
5492;DHT22;2768;53.540;10.224;2023-05-09T05:32:04;11.70;1.00
5492;DHT22;2768;53.540;10.224;2023-05-09T05:37:59;11.80;1.00
5492;DHT22;2768;53.540;10.224;2023-05-09T05:43:52;11.70;1.00
5492;DHT22;2768;53.540;10.224;2023-05-09T05:49:46;11.90;1.00
5492;DHT22;2768;53.540;10.224;2023-05-09T05:55:40;12.00;1.00
5492;DHT22;2768;53.540;10.224;2023-05-09T06:01:34;12.00;1.00
5492;DHT22;2768;53.540;10.224;2023-05-09T06:07:28;11.90;1.00
5492;DHT22;2768;53.540;10.224;2023-05-09T06:13:22;12.00;1.00
5492;DHT22;2768;53.540;10.224;2023-05-09T06:19:21;12.10;1.00
5492;DHT22;2768;53.540;10.224;2023-05-09T06:25:14;12.20;1.00
5492;DHT22;2768;53.540;10.224;2023-05-09T06:31:10;12.20;1.00
5492;DHT22;2768;53.540;10.224;2023-05-09T06:37:03;12.40;1.00
5492;DHT22;2768;53.540;10.224;2023-05-09T06:42:57;12.50;1.00
5492;DHT22;2768;53.540;10.224;2023-05-09T06:48:51;12.60;1.00
5492;DHT22;2768;53.540;10.224;2023-05-09T06:54:44;12.70;1.00
5492;DHT22;2768;53.540;10.224;2023-05-09T07:00:37;12.70;1.00
5492;DHT22;2768;53.540;10.224;2023-05-09T07:06:32;12.90;1.00
5492;DHT22;2768;53.540;10.224;2023-05-09T07:12:25;13.00;1.00
5492;DHT22;2768;53.540;10.224;2023-05-09T07:18:18;13.10;1.00
5492;DHT22;2768;53.540;10.224;2023-05-09T07:24:12;13.20;1.00
5492;DHT22;2768;53.540;10.224;2023-05-09T07:30:06;13.50;1.00
5492;DHT22;2768;53.540;10.224;2023-05-09T07:35:59;13.60;1.00
5492;DHT22;2768;53.540;10.224;2023-05-09T07:41:54;13.80;1.00
5492;DHT22;2768;53.540;10.224;2023-05-09T07:47:47;13.80;1.00
5492;DHT22;2768;53.540;10.224;2023-05-09T07:53:40;14.20;1.00
5492;DHT22;2768;53.540;10.224;2023-05-09T07:59:35;14.20;1.00
5492;DHT22;2768;53.540;10.224;2023-05-09T08:05:28;14.40;1.00
5492;DHT22;2768;53.540;10.224;2023-05-09T08:11:21;14.70;1.00
5492;DHT22;2768;53.540;10.224;2023-05-09T08:17:16;14.80;1.00
5492;DHT22;2768;53.540;10.224;2023-05-09T08:23:09;15.00;1.00
5492;DHT22;2768;53.540;10.224;2023-05-09T08:29:02;15.20;1.00
5492;DHT22;2768;53.540;10.224;2023-05-09T08:34:57;15.30;1.00
5492;DHT22;2768;53.540;10.224;2023-05-09T08:40:50;15.40;1.00
5492;DHT22;2768;53.540;10.224;2023-05-09T08:46:43;15.70;1.00
5492;DHT22;2768;53.540;10.224;2023-05-09T08:52:38;15.80;1.00
5492;DHT22;2768;53.540;10.224;2023-05-09T08:58:32;16.10;1.00
5492;DHT22;2768;53.540;10.224;2023-05-09T09:04:26;16.20;1.00
5492;DHT22;2768;53.540;10.224;2023-05-09T09:10:21;16.30;1.00
5492;DHT22;2768;53.540;10.224;2023-05-09T09:16:18;16.40;1.00
5492;DHT22;2768;53.540;10.224;2023-05-09T09:22:14;16.80;1.00
5492;DHT22;2768;53.540;10.224;2023-05-09T09:28:10;16.90;1.00
5492;DHT22;2768;53.540;10.224;2023-05-09T09:34:03;17.00;1.00
5492;DHT22;2768;53.540;10.224;2023-05-09T09:39:56;17.10;1.00
5492;DHT22;2768;53.540;10.224;2023-05-09T09:45:52;17.30;1.00
5492;DHT22;2768;53.540;10.224;2023-05-09T09:51:49;17.50;1.00
5492;DHT22;2768;53.540;10.224;2023-05-09T09:57:43;17.80;1.00
5492;DHT22;2768;53.540;10.224;2023-05-09T10:03:39;18.10;1.00
5492;DHT22;2768;53.540;10.224;2023-05-09T10:09:33;18.50;1.00
5492;DHT22;2768;53.540;10.224;2023-05-09T10:15:30;19.70;1.00
5492;DHT22;2768;53.540;10.224;2023-05-09T10:21:39;20.20;1.00
5492;DHT22;2768;53.540;10.224;2023-05-09T10:27:34;20.80;1.00
5492;DHT22;2768;53.540;10.224;2023-05-09T10:33:33;21.40;1.00
5492;DHT22;2768;53.540;10.224;2023-05-09T10:39:31;21.70;1.00
5492;DHT22;2768;53.540;10.224;2023-05-09T10:45:25;21.80;1.00
5492;DHT22;2768;53.540;10.224;2023-05-09T10:51:18;22.10;1.00
5492;DHT22;2768;53.540;10.224;2023-05-09T10:57:17;22.40;1.00
5492;DHT22;2768;53.540;10.224;2023-05-09T11:03:11;22.80;1.00
5492;DHT22;2768;53.540;10.224;2023-05-09T11:09:23;23.00;1.00
5492;DHT22;2768;53.540;10.224;2023-05-09T11:15:19;23.30;1.00
5492;DHT22;2768;53.540;10.224;2023-05-09T11:21:13;23.40;1.00
5492;DHT22;2768;53.540;10.224;2023-05-09T11:27:14;23.10;1.00
5492;DHT22;2768;53.540;10.224;2023-05-09T11:33:22;23.10;1.00
5492;DHT22;2768;53.540;10.224;2023-05-09T11:39:23;23.40;1.00
5492;DHT22;2768;53.540;10.224;2023-05-09T11:45:17;23.50;1.00
5492;DHT22;2768;53.540;10.224;2023-05-09T11:53:54;23.20;1.00
5492;DHT22;2768;53.540;10.224;2023-05-09T11:59:48;23.00;1.00
5492;DHT22;2768;53.540;10.224;2023-05-09T12:05:41;22.90;1.00
5492;DHT22;2768;53.540;10.224;2023-05-09T12:11:35;23.00;1.00
5492;DHT22;2768;53.540;10.224;2023-05-09T12:17:29;23.00;1.00
5492;DHT22;2768;53.540;10.224;2023-05-09T12:23:22;22.80;1.00
5492;DHT22;2768;53.540;10.224;2023-05-09T12:29:16;22.60;1.00
5492;DHT22;2768;53.540;10.224;2023-05-09T12:35:10;22.60;1.00
5492;DHT22;2768;53.540;10.224;2023-05-09T12:41:04;22.50;1.00
5492;DHT22;2768;53.540;10.224;2023-05-09T12:47:05;22.30;1.00
5492;DHT22;2768;53.540;10.224;2023-05-09T12:53:00;22.20;1.00
5492;DHT22;2768;53.540;10.224;2023-05-09T12:58:55;22.30;1.00
5492;DHT22;2768;53.540;10.224;2023-05-09T13:04:49;22.00;1.00
5492;DHT22;2768;53.540;10.224;2023-05-09T13:10:42;22.20;1.00
5492;DHT22;2768;53.540;10.224;2023-05-09T13:16:36;22.60;1.00
5492;DHT22;2768;53.540;10.224;2023-05-09T13:22:30;23.00;1.00
5492;DHT22;2768;53.540;10.224;2023-05-09T13:28:24;23.00;1.00
5492;DHT22;2768;53.540;10.224;2023-05-09T13:34:17;23.30;1.00
5492;DHT22;2768;53.540;10.224;2023-05-09T13:40:12;23.80;1.00
5492;DHT22;2768;53.540;10.224;2023-05-09T13:46:06;24.30;1.00
5492;DHT22;2768;53.540;10.224;2023-05-09T13:51:59;24.70;1.00
5492;DHT22;2768;53.540;10.224;2023-05-09T13:57:53;24.80;1.00
5492;DHT22;2768;53.540;10.224;2023-05-09T14:03:47;25.30;1.00
5492;DHT22;2768;53.540;10.224;2023-05-09T14:09:40;25.50;1.00
5492;DHT22;2768;53.540;10.224;2023-05-09T14:15:35;24.80;1.00
5492;DHT22;2768;53.540;10.224;2023-05-09T14:21:28;24.60;1.00
5492;DHT22;2768;53.540;10.224;2023-05-09T14:27:21;24.40;1.00
5492;DHT22;2768;53.540;10.224;2023-05-09T14:33:16;24.10;1.00
5492;DHT22;2768;53.540;10.224;2023-05-09T14:39:09;24.00;1.00
5492;DHT22;2768;53.540;10.224;2023-05-09T14:45:03;23.70;1.00
5492;DHT22;2768;53.540;10.224;2023-05-09T14:50:59;23.60;1.00
5492;DHT22;2768;53.540;10.224;2023-05-09T14:56:52;23.00;1.00
5492;DHT22;2768;53.540;10.224;2023-05-09T15:02:46;22.80;1.00
5492;DHT22;2768;53.540;10.224;2023-05-09T15:08:40;22.60;1.00
5492;DHT22;2768;53.540;10.224;2023-05-09T15:14:33;22.50;1.00
5492;DHT22;2768;53.540;10.224;2023-05-09T15:20:26;22.30;1.00
5492;DHT22;2768;53.540;10.224;2023-05-09T15:26:21;22.30;1.00
5492;DHT22;2768;53.540;10.224;2023-05-09T15:32:14;22.00;1.00
5492;DHT22;2768;53.540;10.224;2023-05-09T15:38:08;21.80;1.00
5492;DHT22;2768;53.540;10.224;2023-05-09T15:44:04;21.80;1.00
5492;DHT22;2768;53.540;10.224;2023-05-09T15:49:58;21.70;1.00
5492;DHT22;2768;53.540;10.224;2023-05-09T15:55:51;21.60;1.00
5492;DHT22;2768;53.540;10.224;2023-05-09T16:01:46;21.50;1.00
5492;DHT22;2768;53.540;10.224;2023-05-09T16:07:42;21.40;1.00
5492;DHT22;2768;53.540;10.224;2023-05-09T16:13:35;21.30;1.00
5492;DHT22;2768;53.540;10.224;2023-05-09T16:19:30;21.20;1.00
5492;DHT22;2768;53.540;10.224;2023-05-09T16:25:26;21.10;1.00
5492;DHT22;2768;53.540;10.224;2023-05-09T16:31:20;21.00;1.00
5492;DHT22;2768;53.540;10.224;2023-05-09T16:37:19;21.00;1.00
5492;DHT22;2768;53.540;10.224;2023-05-09T16:43:12;20.90;1.00
5492;DHT22;2768;53.540;10.224;2023-05-09T16:49:07;20.80;1.00
5492;DHT22;2768;53.540;10.224;2023-05-09T16:55:01;20.70;1.00
5492;DHT22;2768;53.540;10.224;2023-05-09T17:00:54;20.50;1.00
5492;DHT22;2768;53.540;10.224;2023-05-09T17:06:49;20.40;1.00
5492;DHT22;2768;53.540;10.224;2023-05-09T17:12:44;20.30;1.00
5492;DHT22;2768;53.540;10.224;2023-05-09T17:18:37;20.20;1.00
5492;DHT22;2768;53.540;10.224;2023-05-09T17:24:30;20.10;1.00
5492;DHT22;2768;53.540;10.224;2023-05-09T17:30:25;20.00;1.00
5492;DHT22;2768;53.540;10.224;2023-05-09T17:36:18;19.90;1.00
5492;DHT22;2768;53.540;10.224;2023-05-09T17:42:12;19.80;1.00
5492;DHT22;2768;53.540;10.224;2023-05-09T17:48:06;19.70;1.00
5492;DHT22;2768;53.540;10.224;2023-05-09T17:54:00;19.70;1.00
5492;DHT22;2768;53.540;10.224;2023-05-09T17:59:53;19.60;1.00
5492;DHT22;2768;53.540;10.224;2023-05-09T18:05:47;19.50;1.00
5492;DHT22;2768;53.540;10.224;2023-05-09T18:11:40;19.40;1.00
5492;DHT22;2768;53.540;10.224;2023-05-09T18:17:34;19.30;1.00
5492;DHT22;2768;53.540;10.224;2023-05-09T18:23:28;19.30;1.00
5492;DHT22;2768;53.540;10.224;2023-05-09T18:29:22;19.10;1.00
5492;DHT22;2768;53.540;10.224;2023-05-09T18:35:15;19.00;1.00
5492;DHT22;2768;53.540;10.224;2023-05-09T18:41:11;19.00;1.00
5492;DHT22;2768;53.540;10.224;2023-05-09T18:47:04;18.90;1.00
5492;DHT22;2768;53.540;10.224;2023-05-09T18:52:58;18.90;1.00
5492;DHT22;2768;53.540;10.224;2023-05-09T18:58:52;18.80;1.00
5492;DHT22;2768;53.540;10.224;2023-05-09T19:04:45;18.70;1.00
5492;DHT22;2768;53.540;10.224;2023-05-09T19:10:41;18.50;1.00
5492;DHT22;2768;53.540;10.224;2023-05-09T19:16:36;18.50;1.00
5492;DHT22;2768;53.540;10.224;2023-05-09T19:22:30;18.50;1.00
5492;DHT22;2768;53.540;10.224;2023-05-09T19:28:23;18.40;1.00
5492;DHT22;2768;53.540;10.224;2023-05-09T19:34:18;18.30;1.00
5492;DHT22;2768;53.540;10.224;2023-05-09T19:40:11;18.20;1.00
5492;DHT22;2768;53.540;10.224;2023-05-09T19:46:05;18.20;1.00
5492;DHT22;2768;53.540;10.224;2023-05-09T19:52:00;18.00;1.00
5492;DHT22;2768;53.540;10.224;2023-05-09T19:57:53;18.00;1.00
5492;DHT22;2768;53.540;10.224;2023-05-09T20:07:29;17.90;1.00
5492;DHT22;2768;53.540;10.224;2023-05-09T20:13:22;17.90;1.00
5492;DHT22;2768;53.540;10.224;2023-05-09T20:19:16;17.80;1.00
5492;DHT22;2768;53.540;10.224;2023-05-09T20:25:10;17.70;1.00
5492;DHT22;2768;53.540;10.224;2023-05-09T20:31:04;17.60;1.00
5492;DHT22;2768;53.540;10.224;2023-05-09T20:36:57;17.60;1.00
5492;DHT22;2768;53.540;10.224;2023-05-09T20:42:52;17.40;1.00
5492;DHT22;2768;53.540;10.224;2023-05-09T20:48:45;17.50;1.00
5492;DHT22;2768;53.540;10.224;2023-05-09T20:54:39;17.30;1.00
5492;DHT22;2768;53.540;10.224;2023-05-09T21:00:33;17.30;1.00
5492;DHT22;2768;53.540;10.224;2023-05-09T21:06:27;17.10;1.00
5492;DHT22;2768;53.540;10.224;2023-05-09T21:12:20;17.10;1.00
5492;DHT22;2768;53.540;10.224;2023-05-09T21:18:15;17.00;1.00
5492;DHT22;2768;53.540;10.224;2023-05-09T21:24:08;17.00;1.00
5492;DHT22;2768;53.540;10.224;2023-05-09T21:30:02;16.80;1.00
5492;DHT22;2768;53.540;10.224;2023-05-09T21:35:57;16.80;1.00
5492;DHT22;2768;53.540;10.224;2023-05-09T21:41:50;16.80;1.00
5492;DHT22;2768;53.540;10.224;2023-05-09T21:47:43;16.70;1.00
5492;DHT22;2768;53.540;10.224;2023-05-09T21:53:38;16.70;1.00
5492;DHT22;2768;53.540;10.224;2023-05-09T21:59:31;16.70;1.00
5492;DHT22;2768;53.540;10.224;2023-05-09T22:05:25;16.60;1.00
5492;DHT22;2768;53.540;10.224;2023-05-09T22:11:19;16.60;1.00
5492;DHT22;2768;53.540;10.224;2023-05-09T22:17:13;16.40;1.00
5492;DHT22;2768;53.540;10.224;2023-05-09T22:23:06;16.50;1.00
5492;DHT22;2768;53.540;10.224;2023-05-09T22:29:00;16.40;1.00
5492;DHT22;2768;53.540;10.224;2023-05-09T22:34:53;16.40;1.00
5492;DHT22;2768;53.540;10.224;2023-05-09T22:40:47;16.40;1.00
5492;DHT22;2768;53.540;10.224;2023-05-09T22:46:42;16.40;1.00
5492;DHT22;2768;53.540;10.224;2023-05-09T22:52:35;16.30;1.00
5492;DHT22;2768;53.540;10.224;2023-05-09T22:58:28;16.30;1.00
5492;DHT22;2768;53.540;10.224;2023-05-09T23:04:22;16.20;1.00
5492;DHT22;2768;53.540;10.224;2023-05-09T23:10:15;16.10;1.00
5492;DHT22;2768;53.540;10.224;2023-05-09T23:16:09;16.10;1.00
5492;DHT22;2768;53.540;10.224;2023-05-09T23:22:03;16.10;1.00
5492;DHT22;2768;53.540;10.224;2023-05-09T23:27:57;16.00;1.00
5492;DHT22;2768;53.540;10.224;2023-05-09T23:33:50;16.00;1.00
5492;DHT22;2768;53.540;10.224;2023-05-09T23:39:45;15.90;1.00
5492;DHT22;2768;53.540;10.224;2023-05-09T23:45:38;15.90;1.00
5492;DHT22;2768;53.540;10.224;2023-05-09T23:51:31;15.80;1.00
5492;DHT22;2768;53.540;10.224;2023-05-09T23:57:26;15.90;1.00
